x

North Nomad (46184) Wave Buoy

12:00pm - Thu 2nd Jul 2015 All times are AKDT. -8 hours from GMT.

  • Sig Wave height 6.9ft
  • Peak Period 9s
  • Wind
    9mph, 11mph gusts
  • Sea Temp 55°f
  • Air Temp 55°f
  • Sea Pressure 1024.8mb
  • North Nomad
  • North Nomad

More Historic Weather Station data

Upgrade to MSW Pro to gain access to the past 30 days of data for over 8000 Wavebouys and Weather Stations around the globe.

Join Pro

Comparision Forecast

View Surf forecast
   
Thu 07/02 12:00pm 7ft 9s 9 11 mph 1024.8mb 55f 55f
11:00am 7ft 8s 11 13 mph 1024.4mb 54f 54f
10:00am 7ft 8s 11 13 mph 1023.9mb 54f 54f
9:00am 8ft 8s 11 16 mph 1023.4mb 54f 53f
8:00am 9ft 8s 13 16 mph 1022.7mb 54f 54f
7:00am 10ft 9s 16 20 mph 1021.9mb 54f 54f
6:00am 10.5ft 8s 18 22 mph 1021.1mb 54f 54f
5:00am 11.5ft 9s 20 27 mph 1020.4mb 54f 54f
3:00am 11ft 8s 22 29 mph 1019mb 54f 54f
2:00am 10.5ft 10s 25 31 mph 1018.4mb 54f 54f
1:00am 10ft 9s 27 34 mph 1017.6mb 55f 54f
12:00am 10ft 10s 25 34 mph 1017.1mb 55f 54f
Wed 07/01 11:00pm 10ft 10s 25 31 mph 1016.5mb 55f 54f
9:00pm 10ft 10s 27 31 mph 1014.6mb 55f 55f
8:00pm 10.5ft 10s 27 34 mph 1013.6mb 55f 55f
7:00pm 11ft 9s 29 38 mph 1012.6mb 55f 55f
6:00pm 12.5ft 10s 29 36 mph 1012.1mb 55f 55f
5:00pm 11.5ft 9s 27 31 mph 1011.6mb 55f 56f
4:00pm 14ft 10s 27 34 mph 1011.3mb 55f 56f
3:00pm 12ft 8s 29 34 mph 1011.3mb 55f 56f
2:00pm 11ft 8s 29 38 mph 1012mb 55f 56f
1:00pm 9ft 6s 29 36 mph 1012.5mb 56f 56f
12:00pm 7ft 6s 27 31 mph 1013.7mb 56f 56f
11:00am 5.5ft 5s 29 36 mph 1015mb 56f 54f
10:00am 4.5ft  -  27 36 mph 1016.5mb 56f 54f
9:00am 4ft 4s 25 29 mph 1018.3mb 56f 54f
8:00am 4ft 14s 18 22 mph 1019.9mb 56f 55f
7:00am 4ft 14s 20 25 mph 1020.4mb 56f 55f
6:00am 4ft 15s 16 18 mph 1022mb 56f 56f
5:00am 4.5ft  -  16 18 mph 1022.1mb 56f 55f
4:00am 4.5ft 14s 13 16 mph 1023.3mb 56f 55f
3:00am 4ft 14s 11 13 mph 1024.1mb 56f 56f
2:00am 4ft 14s 13 16 mph 1024.6mb 56f 55f
1:00am 3.5ft 7s 11 13 mph 1025mb 56f 55f
12:00am 3.5ft 8s 11 13 mph 1025.8mb 56f 55f
Tue 06/30 11:00pm 3.5ft 7s 11
mph
1026.3mb 56f 56f
9:00pm 3.5ft 8s 11 13 mph 1027mb 56f 55f
8:00pm 3.5ft 7s 7 9 mph 1027mb 56f 55f
7:00pm 3.5ft 14s 9
mph
1027.1mb 56f 56f
6:00pm 4ft 15s 9 11 mph 1027.3mb 56f 55f
5:00pm 4ft 6s 11 13 mph 1027.2mb 56f 55f
4:00pm 4.5ft 6s 11 13 mph 1027.2mb 56f 56f
2:00pm 4.5ft 7s 11 13 mph 1026.7mb 56f 56f
1:00pm 4.5ft 7s 11 13 mph 1026.5mb 56f 55f
12:00pm 4ft 6s 11 13 mph 1026.1mb 56f 56f
11:00am 4ft 7s 13 18 mph 1026mb 56f 55f
10:00am 3.5ft 7s 11 13 mph 1025.8mb 56f 55f
9:00am 3.5ft 14s 11 13 mph 1025.6mb 56f 55f
8:00am 3.5ft 15s 11 13 mph 1025.3mb 56f 55f
7:00am 3.5ft 15s 9 11 mph 1025.1mb 56f 55f
6:00am 3.5ft 14s 9 11 mph 1025mb 56f 55f
5:00am 3.5ft 16s 7 9 mph 1024.8mb 56f 54f
4:00am 4ft 15s 9
mph
1024.4mb 56f 54f
3:00am 3.5ft 15s 13 16 mph 1024mb 56f 55f
2:00am 3.5ft 16s 9 11 mph 1023.9mb 56f 55f
1:00am 3.5ft 16s 13 16 mph 1023.6mb 56f 55f
12:00am 3.5ft 16s 9 11 mph 1023.4mb 56f 55f
Mon 06/29 11:00pm 3.5ft 16s 9 11 mph 1023mb 56f 55f
10:00pm 3.5ft 17s 9 11 mph 1022.5mb 56f 55f
9:00pm 3.5ft 15s 11
mph
1022.2mb 56f 55f
8:00pm 3.5ft 15s 9 11 mph 1022.1mb 56f 54f
7:00pm 3.5ft 16s 11 13 mph 1021.7mb 56f 56f
6:00pm 3.5ft 16s 13 16 mph 1021.6mb 56f 56f
5:00pm 3.5ft 15s 11 13 mph 1021.4mb 56f 56f
4:00pm 3.5ft 15s 11 13 mph 1021.2mb 56f 56f
3:00pm 3.5ft 16s 11 16 mph 1020.9mb 56f 56f
2:00pm 4ft 16s 13 16 mph 1020.6mb 56f 55f
1:00pm 3.5ft 16s 13 16 mph 1020.1mb 56f 55f
12:00pm 3.5ft 16s 13 16 mph 1019.5mb 56f 55f
11:00am 3.5ft 17s 13 16 mph 1018.9mb 56f 55f
10:00am 3.5ft 17s 16 18 mph 1018.5mb 56f 55f
9:00am 3ft 14s 13 18 mph 1018.1mb 56f 55f
8:00am 2.5ft 17s 11 13 mph 1017.9mb 56f 55f
7:00am 3ft 17s 13 16 mph 1017.5mb 56f 55f
6:00am 3.5ft 16s 11 13 mph 1017.2mb 56f 55f
5:00am 3.5ft 17s 13 16 mph 1017mb 56f 56f
4:00am 3.5ft 16s 11 13 mph 1017mb 56f 55f
3:00am 3.5ft 7s 13
mph
1017mb 56f 56f
2:00am 3.5ft 17s 9 11 mph 1016.8mb 56f 56f
1:00am 3.5ft 14s 9
mph
1016.7mb 57f 56f
12:00am 3.5ft 7s 7
mph
1016.9mb 57f 56f
Sun 06/28 11:00pm 3ft 7s 7
mph
1017mb 57f 56f
10:00pm 3ft 7s 4
mph
1016.9mb 57f 56f